Terminal Aerodrome Forecast
Issued by NWS Sioux Falls, SD

Home | Current Version | Previous Version | Graphics & Text | Print | Product List | Glossary Off
Versions: 1 2 3 4 5 6 7 8 9 10 11 12 13 14 15 16

427
FTUS43 KFSD 101724
TAFHON
TAF
KHON 101724Z 1018/1118 31010KT P6SM FEW250
     FM102200 29006KT P6SM SCT250
     FM110200 24008KT P6SM BKN250
     FM110900 30015G23KT P6SM SCT035 BKN080
     FM111200 31018G27KT P6SM BKN035
     FM111400 33023G33KT P6SM VCSH OVC025=

USA.gov is the U.S. government's official web portal to all federal, state and local government web resources and services.